createdAt,value
2022-10-04T00:00:28.443Z,98828.89
2022-10-04T00:01:30.962Z,98828.06
2022-10-04T00:02:33.513Z,98832.20
2022-10-04T00:03:36.011Z,98828.06
2022-10-04T00:04:38.846Z,98827.08
2022-10-04T00:05:41.306Z,98834.17
2022-10-04T00:06:43.908Z,98827.75
2022-10-04T00:07:46.364Z,98832.55
2022-10-04T00:08:48.806Z,98826.59
2022-10-04T00:09:51.289Z,98838.66
2022-10-04T00:10:54.026Z,98831.53
2022-10-04T00:11:56.474Z,98834.17
2022-10-04T00:12:58.917Z,98837.78
2022-10-04T00:14:01.368Z,98840.46
2022-10-04T00:15:03.839Z,98834.84
2022-10-04T00:16:06.817Z,98841.11
2022-10-04T00:17:09.384Z,98838.31
2022-10-04T00:18:11.832Z,98836.32
2022-10-04T00:19:14.287Z,98837.48
2022-10-04T00:20:17.333Z,98841.78
2022-10-04T00:21:20.112Z,98839.62
2022-10-04T00:22:22.560Z,98824.77
2022-10-04T00:23:25.015Z,98834.49
2022-10-04T00:24:27.454Z,98832.01
2022-10-04T00:25:29.904Z,98834.49
2022-10-04T00:26:32.482Z,98822.62
2022-10-04T00:27:34.935Z,98823.60
2022-10-04T00:28:37.371Z,98828.73
2022-10-04T00:29:39.826Z,98821.16
2022-10-04T00:30:42.475Z,98828.06
2022-10-04T00:31:45.442Z,98826.25
2022-10-04T00:32:48.108Z,98832.20
2022-10-04T00:33:50.557Z,98830.39
2022-10-04T00:34:53.036Z,98832.20
2022-10-04T00:35:55.484Z,98830.88
2022-10-04T00:36:58.269Z,98837.48
2022-10-04T00:38:00.736Z,98833.34
2022-10-04T00:39:03.202Z,98834.50
2022-10-04T00:40:05.971Z,98830.70
2022-10-04T00:41:08.406Z,98833.86
2022-10-04T00:42:10.881Z,98841.94
2022-10-04T00:43:13.343Z,98841.94
2022-10-04T00:44:15.784Z,98843.10
2022-10-04T00:45:18.266Z,98833.53
2022-10-04T00:46:21.374Z,98840.13
2022-10-04T00:47:23.981Z,98836.32
2022-10-04T00:48:31.074Z,98838.62
2022-10-04T00:49:30.806Z,98842.41
2022-10-04T00:50:33.603Z,98834.84
2022-10-04T00:51:36.071Z,98843.05
2022-10-04T00:52:38.559Z,98838.93
2022-10-04T00:53:41.037Z,98844.37
2022-10-04T00:54:43.483Z,98847.01
2022-10-04T00:55:45.965Z,98837.61
2022-10-04T00:56:48.605Z,98842.06
2022-10-04T00:57:51.125Z,98843.37
2022-10-04T00:58:53.579Z,98843.39
2022-10-04T00:59:56.025Z,98837.47
2022-10-04T01:00:58.763Z,98840.90
2022-10-04T01:02:01.318Z,98834.30
2022-10-04T01:03:04.023Z,98845.04
2022-10-04T01:04:06.704Z,98853.79
2022-10-04T01:05:09.167Z,98847.34
2022-10-04T01:06:11.715Z,98847.20
2022-10-04T01:07:14.159Z,98849.34
2022-10-04T01:08:16.723Z,98847.36
2022-10-04T01:09:19.161Z,98852.30
2022-10-04T01:10:21.802Z,98842.42
2022-10-04T01:11:24.247Z,98854.62
2022-10-04T01:12:26.685Z,98853.61
2022-10-04T01:13:29.164Z,98846.86
2022-10-04T01:14:31.663Z,98856.78
2022-10-04T01:15:34.156Z,98861.23
2022-10-04T01:16:37.175Z,98852.48
2022-10-04T01:17:39.701Z,98861.38
2022-10-04T01:18:42.204Z,98861.54
2022-10-04T01:19:44.645Z,98857.27
2022-10-04T01:20:47.223Z,98854.14
2022-10-04T01:21:50.054Z,98848.53
2022-10-04T01:22:52.495Z,98853.66
2022-10-04T01:23:55.270Z,98851.67
2022-10-04T01:24:57.722Z,98852.98
2022-10-04T01:26:00.164Z,98854.30
2022-10-04T01:27:02.597Z,98851.52
2022-10-04T01:28:05.085Z,98855.81
2022-10-04T01:29:07.779Z,98857.77
2022-10-04T01:30:11.286Z,98861.05
2022-10-04T01:31:13.827Z,98864.22
2022-10-04T01:32:16.602Z,98862.22
2022-10-04T01:33:19.044Z,98862.90
2022-10-04T01:34:21.514Z,98862.06
2022-10-04T01:35:23.945Z,98864.22
2022-10-04T01:36:26.981Z,98864.22
2022-10-04T01:37:29.422Z,98861.24
2022-10-04T01:38:31.857Z,98869.65
2022-10-04T01:39:34.343Z,98865.20
2022-10-04T01:40:36.980Z,98868.82
2022-10-04T01:41:39.868Z,98871.64
2022-10-04T01:42:42.421Z,98861.73
2022-10-04T01:43:44.857Z,98869.00
2022-10-04T01:44:47.316Z,98872.13
2022-10-04T01:45:49.769Z,98858.11
2022-10-04T01:46:52.509Z,98867.84
2022-10-04T01:47:55.073Z,98867.34
2022-10-04T01:48:57.554Z,98861.58
2022-10-04T01:50:00.149Z,98861.56
2022-10-04T01:51:02.692Z,98860.93
2022-10-04T01:52:05.122Z,98859.27
2022-10-04T01:53:07.592Z,98866.52
2022-10-04T01:54:10.034Z,98870.47
2022-10-04T01:55:12.503Z,98864.37
2022-10-04T01:56:15.242Z,98864.20
2022-10-04T01:57:17.827Z,98869.81
2022-10-04T01:58:20.263Z,98864.87
2022-10-04T01:59:22.704Z,98858.28
2022-10-04T02:00:25.340Z,98863.71
2022-10-04T02:01:27.866Z,98864.55
2022-10-04T02:02:30.627Z,98867.52
2022-10-04T02:03:33.142Z,98864.53
2022-10-04T02:04:35.688Z,98867.50
2022-10-04T02:05:38.434Z,98862.72
2022-10-04T02:06:40.970Z,98872.94
2022-10-04T02:07:43.409Z,98865.36
2022-10-04T02:08:45.877Z,98862.23
2022-10-04T02:09:48.352Z,98865.81
2022-10-04T02:10:51.037Z,98866.30
2022-10-04T02:11:53.473Z,98870.76
2022-10-04T02:12:55.901Z,98865.31
2022-10-04T02:13:58.345Z,98871.09
2022-10-04T02:15:01.086Z,98877.08
2022-10-04T02:16:03.845Z,98872.59
2022-10-04T02:17:06.304Z,98877.02
2022-10-04T02:18:08.738Z,98870.26
2022-10-04T02:19:11.192Z,98874.54
2022-10-04T02:20:14.473Z,98870.42
2022-10-04T02:21:16.947Z,98872.73
2022-10-04T02:22:19.382Z,98874.05
2022-10-04T02:23:21.814Z,98868.44
2022-10-04T02:24:24.276Z,98864.47
2022-10-04T02:25:26.745Z,98867.11
2022-10-04T02:26:29.220Z,98864.16
2022-10-04T02:27:31.659Z,98875.00
2022-10-04T02:28:34.152Z,98867.27
2022-10-04T02:29:36.642Z,98864.28
2022-10-04T02:30:39.609Z,98855.23
2022-10-04T02:31:42.333Z,98853.57
2022-10-04T02:32:45.339Z,98862.95
2022-10-04T02:33:47.766Z,98864.77
2022-10-04T02:34:50.236Z,98871.56
2022-10-04T02:35:52.670Z,98866.77
2022-10-04T02:36:55.343Z,98871.03
2022-10-04T02:37:57.786Z,98867.75
2022-10-04T02:39:00.318Z,98869.08
2022-10-04T02:40:03.069Z,98865.94
2022-10-04T02:41:05.501Z,98872.87
2022-10-04T02:42:07.970Z,98868.58
2022-10-04T02:43:10.413Z,98868.89
2022-10-04T02:44:12.843Z,98868.56
2022-10-04T02:45:15.288Z,98862.64
2022-10-04T02:46:17.856Z,98873.30
2022-10-04T02:47:20.292Z,98877.74
2022-10-04T02:48:23.051Z,98882.03
2022-10-04T02:49:25.483Z,98883.04
2022-10-04T02:50:27.920Z,98893.58
2022-10-04T02:51:30.353Z,98888.64
2022-10-04T02:52:32.820Z,98886.84
2022-10-04T02:53:35.282Z,98886.16
2022-10-04T02:54:37.723Z,98888.97
2022-10-04T02:55:40.150Z,98893.41
2022-10-04T02:56:42.578Z,98890.09
2022-10-04T02:57:45.054Z,98884.78
2022-10-04T02:58:47.487Z,98881.86
2022-10-04T02:59:49.924Z,98885.11
2022-10-04T03:00:52.737Z,98881.65
2022-10-04T03:01:55.754Z,98887.60
2022-10-04T03:02:58.408Z,98883.13
2022-10-04T03:04:00.936Z,98884.78
2022-10-04T03:05:03.367Z,98881.47
2022-10-04T03:06:06.005Z,98885.25
2022-10-04T03:07:08.745Z,98883.59
2022-10-04T03:08:11.216Z,98886.09
2022-10-04T03:09:13.694Z,98885.08
2022-10-04T03:10:16.435Z,98884.93
2022-10-04T03:11:18.870Z,98886.73
2022-10-04T03:12:21.410Z,98891.68
2022-10-04T03:13:23.885Z,98887.71
2022-10-04T03:14:26.323Z,98893.98
2022-10-04T03:15:28.757Z,98890.31
2022-10-04T03:16:31.250Z,98892.66
2022-10-04T03:17:33.862Z,98886.88
2022-10-04T03:18:36.329Z,98889.15
2022-10-04T03:19:38.777Z,98888.31
2022-10-04T03:20:41.679Z,98892.61
2022-10-04T03:21:44.363Z,98895.90
2022-10-04T03:22:47.393Z,98891.92
2022-10-04T03:23:49.916Z,98900.52
2022-10-04T03:24:52.474Z,98897.41
2022-10-04T03:25:54.906Z,98900.84
2022-10-04T03:26:57.547Z,98895.90
2022-10-04T03:28:00.090Z,98898.85
2022-10-04T03:29:02.908Z,98900.52
2022-10-04T03:30:05.646Z,98898.02
2022-10-04T03:31:08.277Z,98896.69
2022-10-04T03:32:10.963Z,98898.85
2022-10-04T03:33:13.410Z,98902.42
2022-10-04T03:34:15.875Z,98907.22
2022-10-04T03:35:18.358Z,98910.54
2022-10-04T03:36:21.120Z,98904.13
2022-10-04T03:37:23.595Z,98914.98
2022-10-04T03:38:26.050Z,98907.22
2022-10-04T03:39:28.545Z,98911.87
2022-10-04T03:40:31.085Z,98908.41
2022-10-04T03:41:33.734Z,98918.27
2022-10-04T03:42:36.173Z,98917.09
2022-10-04T03:43:38.649Z,98917.25
2022-10-04T03:44:41.127Z,98924.48
2022-10-04T03:45:43.605Z,98921.54
2022-10-04T03:46:46.146Z,98923.02
2022-10-04T03:47:48.612Z,98923.34
2022-10-04T03:48:51.026Z,98927.78
2022-10-04T03:49:53.509Z,98925.47
2022-10-04T03:50:56.208Z,98919.00
2022-10-04T03:51:58.671Z,98924.27
2022-10-04T03:53:01.115Z,98926.24
2022-10-04T03:54:03.553Z,98919.22
2022-10-04T03:55:06.042Z,98927.59
2022-10-04T03:56:08.998Z,98928.75
2022-10-04T03:57:11.435Z,98928.41
2022-10-04T03:58:13.900Z,98926.44
2022-10-04T03:59:16.341Z,98930.36
2022-10-04T04:00:19.629Z,98928.56
2022-10-04T04:01:22.344Z,98926.44
2022-10-04T04:02:24.997Z,98927.27
2022-10-04T04:03:27.500Z,98923.98
2022-10-04T04:04:29.938Z,98926.95
2022-10-04T04:05:32.425Z,98927.31
2022-10-04T04:06:35.070Z,98929.30
2022-10-04T04:07:37.720Z,98930.00
2022-10-04T04:08:40.277Z,98930.14
2022-10-04T04:09:42.717Z,98936.05
2022-10-04T04:10:45.410Z,98931.80
2022-10-04T04:11:47.853Z,98932.45
2022-10-04T04:12:50.345Z,98938.73
2022-10-04T04:13:52.789Z,98937.44
2022-10-04T04:14:55.325Z,98943.03
2022-10-04T04:15:57.874Z,98942.75
2022-10-04T04:17:00.499Z,98944.89
2022-10-04T04:18:02.942Z,98945.20
2022-10-04T04:19:05.384Z,98943.91
2022-10-04T04:20:08.550Z,98944.78
2022-10-04T04:21:11.312Z,98946.11
2022-10-04T04:22:14.348Z,98945.97
2022-10-04T04:23:16.812Z,98958.32
2022-10-04T04:24:19.266Z,98957.85
2022-10-04T04:25:21.710Z,98967.09
2022-10-04T04:26:24.599Z,98965.32
2022-10-04T04:27:29.165Z,98964.64
2022-10-04T04:28:31.454Z,98965.14
2022-10-04T04:29:34.063Z,98969.47
2022-10-04T04:30:36.745Z,98975.42
2022-10-04T04:31:39.301Z,98975.16
2022-10-04T04:32:42.087Z,98975.95
2022-10-04T04:33:44.530Z,98976.81
2022-10-04T04:34:47.017Z,98975.30
2022-10-04T04:35:49.460Z,98982.09
2022-10-04T04:36:52.153Z,98982.91
2022-10-04T04:37:54.600Z,98986.07
2022-10-04T04:38:57.038Z,98988.40
2022-10-04T04:39:59.476Z,98987.25
2022-10-04T04:41:02.242Z,98991.89
2022-10-04T04:42:04.721Z,98988.91
2022-10-04T04:43:07.210Z,98989.07
2022-10-04T04:44:09.656Z,98991.23
2022-10-04T04:45:12.100Z,98996.18
2022-10-04T04:46:27.218Z,99000.14
2022-10-04T04:47:19.360Z,98999.50
2022-10-04T04:48:21.809Z,98996.34
2022-10-04T04:49:24.257Z,98997.50
2022-10-04T04:50:26.801Z,98995.86
2022-10-04T04:51:29.238Z,98996.34
2022-10-04T04:52:31.715Z,99002.96
2022-10-04T04:53:34.158Z,99006.23
2022-10-04T04:54:36.623Z,98997.48
2022-10-04T04:55:56.727Z,98995.53
2022-10-04T04:56:43.524Z,99004.59
2022-10-04T04:57:45.994Z,99005.09
2022-10-04T04:58:48.438Z,99008.74
2022-10-04T04:59:50.919Z,99016.67
2022-10-04T05:00:53.571Z,99008.23
2022-10-04T05:01:56.648Z,99012.68
2022-10-04T05:02:59.206Z,99016.67
2022-10-04T05:04:01.678Z,99014.34
2022-10-04T05:05:04.151Z,99019.63
2022-10-04T05:06:06.901Z,99015.99
2022-10-04T05:07:09.411Z,99021.95
2022-10-04T05:08:11.911Z,99022.59
2022-10-04T05:09:14.359Z,99025.73
2022-10-04T05:10:17.242Z,99025.89
2022-10-04T05:11:19.686Z,99029.85
2022-10-04T05:12:22.126Z,99026.56
2022-10-04T05:13:24.607Z,99024.91
2022-10-04T05:14:27.046Z,99020.11
2022-10-04T05:15:29.529Z,99030.67
2022-10-04T05:16:32.135Z,99026.23
2022-10-04T05:17:34.631Z,99033.48
2022-10-04T05:18:37.107Z,99032.34
2022-10-04T05:19:39.579Z,99030.53
2022-10-04T05:20:42.447Z,99034.98
2022-10-04T05:21:45.144Z,99043.25
2022-10-04T05:22:48.049Z,99042.42
2022-10-04T05:23:50.543Z,99040.91
2022-10-04T05:24:53.036Z,99042.41
2022-10-04T05:25:55.476Z,99048.84
2022-10-04T05:26:58.125Z,99047.85
2022-10-04T05:28:00.714Z,99054.30
2022-10-04T05:29:03.483Z,99058.91
2022-10-04T05:31:16.251Z,99058.58
2022-10-04T05:32:18.744Z,99056.12
2022-10-04T05:33:21.191Z,99065.36
2022-10-04T05:34:23.676Z,99059.25
2022-10-04T05:35:26.219Z,99062.23
2022-10-04T05:36:28.867Z,99060.39
2022-10-04T05:37:31.309Z,99066.50
2022-10-04T05:38:33.812Z,99066.50
2022-10-04T05:39:36.304Z,99069.14
2022-10-04T05:40:38.946Z,99069.14
2022-10-04T05:41:41.385Z,99062.87
2022-10-04T05:42:44.003Z,99074.61
2022-10-04T05:43:46.447Z,99074.27
2022-10-04T05:44:48.921Z,99062.56
2022-10-04T05:45:51.425Z,99077.06
2022-10-04T05:46:54.314Z,99078.73
2022-10-04T05:47:56.760Z,99077.25
2022-10-04T05:48:59.207Z,99080.72
2022-10-04T05:50:01.697Z,99079.40
2022-10-04T05:51:04.171Z,99078.08
2022-10-04T05:52:06.816Z,99084.50
2022-10-04T05:53:09.253Z,99084.50
2022-10-04T05:54:11.712Z,99083.52
2022-10-04T05:55:14.181Z,99074.27
2022-10-04T05:56:16.847Z,99081.52
2022-10-04T05:57:19.315Z,99086.31
2022-10-04T05:58:21.799Z,99087.98
2022-10-04T05:59:24.250Z,99087.81
2022-10-04T06:00:26.923Z,99087.47
2022-10-04T06:01:29.510Z,99089.28
2022-10-04T06:02:32.090Z,99096.91
2022-10-04T06:03:34.659Z,99087.48
2022-10-04T06:04:37.134Z,99092.28
2022-10-04T06:05:39.657Z,99095.08
2022-10-04T06:06:42.305Z,99092.27
2022-10-04T06:07:44.754Z,99090.28
2022-10-04T06:08:47.203Z,99091.29
2022-10-04T06:09:49.660Z,99088.46
2022-10-04T06:10:52.458Z,99086.17
2022-10-04T06:11:54.917Z,99089.95
2022-10-04T06:12:57.361Z,99092.28
2022-10-04T06:13:59.828Z,99090.44
2022-10-04T06:15:02.274Z,99090.77
2022-10-04T06:16:04.839Z,99091.77
2022-10-04T06:17:07.384Z,99092.41
2022-10-04T06:18:10.131Z,99094.56
2022-10-04T06:19:12.607Z,99098.84
2022-10-04T06:20:15.456Z,99091.55
2022-10-04T06:21:18.745Z,99098.47
2022-10-04T06:22:21.385Z,99100.05
2022-10-04T06:23:24.131Z,99099.86
2022-10-04T06:24:27.209Z,99091.02
2022-10-04T06:25:29.778Z,99092.41
2022-10-04T06:26:32.482Z,99088.48
2022-10-04T06:27:34.924Z,99091.03
2022-10-04T06:28:37.396Z,99090.75
2022-10-04T06:29:39.919Z,99090.95
2022-10-04T06:30:42.486Z,99097.28
2022-10-04T06:31:45.430Z,99092.94
2022-10-04T06:32:48.405Z,99095.17
2022-10-04T06:33:50.878Z,99090.44
2022-10-04T06:34:53.365Z,99086.52
2022-10-04T06:35:55.813Z,99091.55
2022-10-04T06:36:58.508Z,99093.83
2022-10-04T06:38:02.478Z,99090.49
2022-10-04T06:39:05.040Z,99089.07
2022-10-04T06:40:07.998Z,99092.91
2022-10-04T06:41:10.446Z,99085.97
2022-10-04T06:42:12.909Z,99083.64
2022-10-04T06:43:15.988Z,99080.37
2022-10-04T06:44:18.429Z,99088.73
2022-10-04T06:45:20.920Z,99087.84
2022-10-04T06:46:23.792Z,99097.80
2022-10-04T06:47:26.327Z,99089.94
2022-10-04T06:48:28.768Z,99089.88
2022-10-04T06:49:31.217Z,99094.09
2022-10-04T06:50:33.794Z,99090.94
2022-10-04T06:51:36.344Z,99095.36
2022-10-04T06:52:38.863Z,99092.93
2022-10-04T06:53:41.325Z,99100.62
2022-10-04T06:54:43.757Z,99097.21
2022-10-04T06:55:46.224Z,99094.55
2022-10-04T06:56:48.890Z,99096.73
2022-10-04T06:57:51.368Z,99096.13
2022-10-04T06:58:53.833Z,99097.19
2022-10-04T06:59:56.273Z,99094.59
2022-10-04T07:00:58.955Z,99093.77
2022-10-04T07:02:01.602Z,99097.73
2022-10-04T07:03:04.383Z,99101.28
2022-10-04T07:04:06.830Z,99096.75
2022-10-04T07:05:09.867Z,99096.76
2022-10-04T07:06:13.266Z,99089.73
2022-10-04T07:07:15.862Z,99095.98
2022-10-04T07:08:18.362Z,99096.48
2022-10-04T07:09:20.928Z,99099.30
2022-10-04T07:10:23.581Z,99100.41
2022-10-04T07:11:26.036Z,99104.77
2022-10-04T07:12:28.566Z,99103.94
2022-10-04T07:13:31.062Z,99104.60
2022-10-04T07:14:33.503Z,99101.59
2022-10-04T07:15:35.991Z,99096.39
2022-10-04T07:16:38.727Z,99105.43
2022-10-04T07:18:51.367Z,99097.20
2022-10-04T07:19:53.816Z,99095.38
2022-10-04T07:20:56.484Z,99092.27
2022-10-04T07:21:59.034Z,99094.75
2022-10-04T07:23:01.458Z,99090.62
2022-10-04T07:24:03.981Z,99096.34
2022-10-04T07:25:06.522Z,99096.25
2022-10-04T07:26:09.160Z,99091.89
2022-10-04T07:27:11.612Z,99097.12
2022-10-04T07:28:14.170Z,99096.16
2022-10-04T07:29:16.966Z,99095.54
2022-10-04T07:30:19.529Z,99091.44
2022-10-04T07:31:21.990Z,99092.38
2022-10-04T07:32:24.527Z,99089.41
2022-10-04T07:33:26.970Z,99094.92
2022-10-04T07:34:29.464Z,99088.86
2022-10-04T07:35:31.907Z,99085.21
2022-10-04T07:36:34.663Z,99088.54
2022-10-04T07:37:37.128Z,99093.41
2022-10-04T07:38:39.555Z,99080.52
2022-10-04T07:39:42.035Z,99085.03
2022-10-04T07:40:44.678Z,99085.25
2022-10-04T07:41:47.122Z,99088.91
2022-10-04T07:42:49.712Z,99090.36
2022-10-04T07:43:52.179Z,99093.77
2022-10-04T07:44:54.647Z,99093.30
2022-10-04T07:45:57.248Z,99095.12
2022-10-04T07:47:00.146Z,99098.19
2022-10-04T07:48:02.893Z,99101.56
2022-10-04T07:49:05.333Z,99097.64
2022-10-04T07:50:08.113Z,99089.81
2022-10-04T07:51:10.562Z,99092.92
2022-10-04T07:52:13.215Z,99095.68
2022-10-04T07:53:15.658Z,99090.84
2022-10-04T07:54:18.106Z,99093.80
2022-10-04T07:55:20.589Z,99098.59
2022-10-04T07:56:23.185Z,99089.74
2022-10-04T07:57:25.631Z,99098.63
2022-10-04T07:58:28.082Z,99089.39
2022-10-04T07:59:30.521Z,99096.47
2022-10-04T08:00:33.303Z,99095.59
2022-10-04T08:01:35.787Z,99103.09
2022-10-04T08:02:38.458Z,99089.86
2022-10-04T08:03:41.477Z,99097.77
2022-10-04T08:04:43.928Z,99096.30
2022-10-04T08:05:46.401Z,99092.02
2022-10-04T08:06:48.993Z,99097.38
2022-10-04T08:07:51.523Z,99090.75
2022-10-04T08:08:53.969Z,99088.80
2022-10-04T08:09:56.411Z,99094.86
2022-10-04T08:10:59.096Z,99090.93
2022-10-04T08:12:01.532Z,99091.28
2022-10-04T08:13:03.966Z,99089.19
2022-10-04T08:14:06.449Z,99095.25
2022-10-04T08:15:08.904Z,99094.66
2022-10-04T08:16:12.138Z,99103.67
2022-10-04T08:17:15.877Z,99089.67
2022-10-04T08:18:18.649Z,99099.44
2022-10-04T08:19:21.095Z,99100.69
2022-10-04T08:20:23.637Z,99094.93
2022-10-04T08:21:26.323Z,99103.73
2022-10-04T08:22:28.967Z,99109.16
2022-10-04T08:23:31.421Z,99103.45
2022-10-04T08:24:33.982Z,99104.02
2022-10-04T08:25:36.439Z,99107.22
2022-10-04T08:26:39.345Z,99106.88
2022-10-04T08:27:41.791Z,99109.44
2022-10-04T08:28:44.383Z,99112.50
2022-10-04T08:29:46.966Z,99115.08
2022-10-04T08:30:49.751Z,99109.77
2022-10-04T08:31:52.299Z,99118.20
2022-10-04T08:32:54.733Z,99115.06
2022-10-04T08:33:57.171Z,99107.66
2022-10-04T08:34:59.615Z,99104.70
2022-10-04T08:36:02.062Z,99096.91
2022-10-04T08:37:04.583Z,99107.70
2022-10-04T08:38:07.026Z,99110.53
2022-10-04T08:39:09.465Z,99110.33
2022-10-04T08:40:13.228Z,99116.81
2022-10-04T08:41:16.123Z,99102.84
2022-10-04T08:42:18.915Z,99105.39
2022-10-04T08:43:21.361Z,99107.16
2022-10-04T08:44:23.806Z,99099.98
2022-10-04T08:45:26.249Z,99103.09
2022-10-04T08:46:28.927Z,99101.41
2022-10-04T08:47:31.500Z,99109.70
2022-10-04T08:48:33.950Z,99109.61
2022-10-04T08:49:36.394Z,99106.44
2022-10-04T08:50:38.932Z,99106.11
2022-10-04T08:51:41.383Z,99099.23
2022-10-04T08:52:43.864Z,99102.84
2022-10-04T08:53:46.310Z,99096.52
2022-10-04T08:54:48.796Z,99103.48
2022-10-04T08:55:51.243Z,99100.65
2022-10-04T08:56:54.003Z,99103.52
2022-10-04T08:57:56.484Z,99104.40
2022-10-04T08:58:58.928Z,99109.83
2022-10-04T09:00:01.377Z,99109.61
2022-10-04T09:01:04.130Z,99106.75
2022-10-04T09:02:06.815Z,99103.86
2022-10-04T09:03:09.349Z,99106.73
2022-10-04T09:04:12.174Z,99105.91
2022-10-04T09:05:14.718Z,99116.29
2022-10-04T09:06:17.362Z,99114.39
2022-10-04T09:07:19.801Z,99119.68
2022-10-04T09:08:22.705Z,99116.05
2022-10-04T09:09:25.206Z,99112.59
2022-10-04T09:10:27.783Z,99116.44
2022-10-04T09:11:30.229Z,99115.57
2022-10-04T09:12:32.691Z,99111.55
2022-10-04T09:13:35.165Z,99112.56
2022-10-04T09:14:37.616Z,99107.47
2022-10-04T09:15:40.117Z,99110.13
2022-10-04T09:16:43.285Z,99116.27
2022-10-04T09:17:46.159Z,99110.91
2022-10-04T09:18:48.633Z,99108.47
2022-10-04T09:19:51.073Z,99114.00
2022-10-04T09:20:53.810Z,99115.39
2022-10-04T09:21:56.300Z,99113.44
2022-10-04T09:23:01.778Z,99113.28
2022-10-04T09:24:03.197Z,99111.57
2022-10-04T09:25:05.659Z,99108.34
2022-10-04T09:26:09.340Z,99116.72
2022-10-04T09:27:11.788Z,99115.50
2022-10-04T09:28:14.278Z,99112.95
2022-10-04T09:29:16.745Z,99112.82
2022-10-04T09:30:19.426Z,99108.98
2022-10-04T09:31:21.934Z,99122.94
2022-10-04T09:32:24.417Z,99114.78
2022-10-04T09:33:26.887Z,99113.81
2022-10-04T09:34:31.685Z,99119.75
2022-10-04T09:35:33.753Z,99123.23
2022-10-04T09:36:36.577Z,99125.25
2022-10-04T09:37:39.011Z,99121.72
2022-10-04T09:38:41.440Z,99124.52
2022-10-04T09:39:44.349Z,99116.39
2022-10-04T09:40:47.478Z,99127.48
2022-10-04T09:41:50.028Z,99130.09
2022-10-04T09:42:52.468Z,99128.44
2022-10-04T09:43:54.912Z,99128.57
2022-10-04T09:44:57.375Z,99132.63
2022-10-04T09:45:59.860Z,99135.98
2022-10-04T09:47:02.449Z,99128.13
2022-10-04T09:48:05.117Z,99130.80
2022-10-04T09:49:07.597Z,99132.63
2022-10-04T09:50:10.572Z,99128.80
2022-10-04T09:51:13.000Z,99139.26
2022-10-04T09:52:15.496Z,99140.03
2022-10-04T09:53:17.932Z,99133.89
2022-10-04T09:54:20.381Z,99140.47
2022-10-04T09:55:22.884Z,99124.37
2022-10-04T09:56:25.518Z,99137.16
2022-10-04T09:57:27.955Z,99138.50
2022-10-04T09:58:30.418Z,99141.72
2022-10-04T09:59:32.893Z,99140.89
2022-10-04T10:00:35.799Z,99140.51
2022-10-04T10:01:38.459Z,99142.55
2022-10-04T10:02:40.934Z,99141.22
2022-10-04T10:03:43.434Z,99147.72
2022-10-04T10:04:45.977Z,99142.16
2022-10-04T10:05:48.457Z,99149.93
2022-10-04T10:06:51.333Z,99149.31
2022-10-04T10:07:53.771Z,99147.59
2022-10-04T10:08:56.233Z,99154.39
2022-10-04T10:09:58.681Z,99157.81
2022-10-04T10:11:01.368Z,99154.33
2022-10-04T10:12:04.013Z,99155.61
2022-10-04T10:13:06.451Z,99148.63
2022-10-04T10:14:08.906Z,99157.98
2022-10-04T10:15:11.388Z,99163.78
2022-10-04T10:16:14.206Z,99168.34
2022-10-04T10:17:16.801Z,99157.08
2022-10-04T10:18:19.249Z,99164.78
2022-10-04T10:19:26.135Z,99171.13
2022-10-04T10:20:26.350Z,99170.84
2022-10-04T10:21:28.854Z,99168.56
2022-10-04T10:22:31.588Z,99174.59
2022-10-04T10:23:34.029Z,99172.77
2022-10-04T10:24:36.479Z,99177.70
2022-10-04T10:25:38.982Z,99170.11
2022-10-04T10:26:42.132Z,99177.63
2022-10-04T10:27:45.024Z,99173.14
2022-10-04T10:28:47.490Z,99170.65
2022-10-04T10:29:49.964Z,99173.59
2022-10-04T10:30:52.788Z,99171.47
2022-10-04T10:31:55.314Z,99184.41
2022-10-04T10:32:57.750Z,99179.44
2022-10-04T10:34:00.221Z,99182.47
2022-10-04T10:35:02.720Z,99178.16
2022-10-04T10:36:05.496Z,99176.16
2022-10-04T10:37:07.998Z,99185.13
2022-10-04T10:38:10.448Z,99180.64
2022-10-04T10:39:12.917Z,99186.58
2022-10-04T10:40:16.056Z,99180.02
2022-10-04T10:41:18.501Z,99179.64
2022-10-04T10:42:21.194Z,99181.75
2022-10-04T10:43:23.664Z,99176.30
2022-10-04T10:44:26.102Z,99181.62
2022-10-04T10:45:28.536Z,99182.45
2022-10-04T10:46:31.583Z,99177.59
2022-10-04T10:47:34.261Z,99182.07
2022-10-04T10:48:36.725Z,99174.20
2022-10-04T10:49:39.170Z,99176.55
2022-10-04T10:50:41.882Z,99181.59
2022-10-04T10:51:44.327Z,99184.48
2022-10-04T10:52:46.794Z,99173.51
2022-10-04T10:53:49.239Z,99182.42
2022-10-04T10:54:51.697Z,99176.27
2022-10-04T10:55:54.130Z,99184.48
2022-10-04T10:56:57.002Z,99179.45
2022-10-04T10:57:59.474Z,99179.78
2022-10-04T10:59:01.911Z,99178.22
2022-10-04T11:00:04.371Z,99176.41
2022-10-04T11:01:06.813Z,99172.15
2022-10-04T11:02:09.344Z,99172.78
2022-10-04T11:03:14.168Z,99172.00
2022-10-04T11:04:16.546Z,99173.60
2022-10-04T11:05:18.985Z,99175.62
2022-10-04T11:06:21.633Z,99175.90
2022-10-04T11:07:24.195Z,99179.49
2022-10-04T11:08:26.695Z,99173.80
2022-10-04T11:09:29.142Z,99178.13
2022-10-04T11:10:31.990Z,99179.97
2022-10-04T11:11:34.440Z,99179.56
2022-10-04T11:12:36.888Z,99176.66
2022-10-04T11:13:39.422Z,99181.16
2022-10-04T11:14:41.863Z,99183.98
2022-10-04T11:15:44.342Z,99181.30
2022-10-04T11:16:47.744Z,99186.58
2022-10-04T11:17:50.698Z,99191.28
2022-10-04T11:18:53.169Z,99189.05
2022-10-04T11:19:55.627Z,99187.17
2022-10-04T11:20:58.371Z,99178.24
2022-10-04T11:22:02.533Z,99180.16
2022-10-04T11:23:04.975Z,99177.12
2022-10-04T11:24:07.453Z,99172.01
2022-10-04T11:25:09.914Z,99179.61
2022-10-04T11:26:12.653Z,99179.63
2022-10-04T11:27:15.089Z,99180.80
2022-10-04T11:28:17.611Z,99184.78
2022-10-04T11:29:20.372Z,99188.28
2022-10-04T11:30:23.010Z,99173.88
2022-10-04T11:31:25.494Z,99187.42
2022-10-04T11:32:27.999Z,99189.45
2022-10-04T11:33:30.442Z,99186.55
2022-10-04T11:34:33.008Z,99185.73
2022-10-04T11:35:35.463Z,99183.70
2022-10-04T11:36:38.106Z,99185.09
2022-10-04T11:37:40.572Z,99191.00
2022-10-04T11:38:43.060Z,99197.09
2022-10-04T11:39:45.558Z,99196.67
2022-10-04T11:40:48.091Z,99197.04
2022-10-04T11:41:50.825Z,99200.30
2022-10-04T11:42:53.259Z,99202.31
2022-10-04T11:43:55.739Z,99198.83
2022-10-04T11:44:58.367Z,99197.83
2022-10-04T11:46:00.825Z,99200.06
2022-10-04T11:47:03.677Z,99199.41
2022-10-04T11:48:06.239Z,99200.86
2022-10-04T11:49:08.688Z,99204.75
2022-10-04T11:50:11.873Z,99203.70
2022-10-04T11:51:14.330Z,99206.72
2022-10-04T11:52:16.778Z,99206.05
2022-10-04T11:53:19.235Z,99199.70
2022-10-04T11:54:21.676Z,99207.77
2022-10-04T11:55:24.169Z,99206.80
2022-10-04T11:56:26.914Z,99199.30
2022-10-04T11:57:29.478Z,99203.89
2022-10-04T11:58:31.935Z,99210.53
2022-10-04T11:59:34.367Z,99204.21
2022-10-04T12:00:37.064Z,99205.46
2022-10-04T12:01:39.501Z,99212.82
2022-10-04T12:02:41.946Z,99210.80
2022-10-04T12:03:44.594Z,99206.29
2022-10-04T12:04:47.536Z,99206.29
2022-10-04T12:05:50.418Z,99207.33
2022-10-04T12:06:53.386Z,99212.48
2022-10-04T12:07:55.837Z,99213.50
2022-10-04T12:08:58.281Z,99210.63
2022-10-04T12:10:01.235Z,99211.73
2022-10-04T12:11:04.131Z,99211.73
2022-10-04T12:12:06.618Z,99218.53
2022-10-04T12:13:09.264Z,99213.81
2022-10-04T12:14:11.705Z,99211.67
2022-10-04T12:15:14.179Z,99213.81
2022-10-04T12:16:16.852Z,99216.80
2022-10-04T12:17:19.431Z,99214.68